Dannelly, Alabama
Current Conditions -  °F | °C
As of 5:58 PM on Friday 21 Nov 2014 (Local Time) from KMXF Reporting Station
Clear Clear  
Wind Chill: 14°   Ceiling: Unl
Heat Index: 14°   Visibility: 10mi
Dew Point:   Wind: 2mph
Humidity: 60%   Direction: 20°NNE
Pressure: 30.33"   Gusts: NA
Location:  32.3488°N, 86.4016°W
Report Text: KMXF 212358Z AUTO 02002KT 10SM CLR 14/06 A3033 RMK AO2 SLP274 T01360060 10203 20136 53009
Loading
Personal Weather Stations






























Interactive Weather Map New forecast layout! Learn more

10-Day Weather Forecast

Advertisements
Track Severe Weather on mobile